Gondomar, Spain
Current Conditions -  °F | °C
As of 1:30 PM on Friday 24 Oct 2014 (Local Time) from LEVX Reporting Station
Clear Clear  
Wind Chill: 73°   Ceiling: Unl
Heat Index: 73°   Visibility: 6mi
Dew Point: 61°   Wind: 3mph
Humidity: 65%   Direction: 220°SW
Pressure: 30.15"   Gusts: NA
Location:  42.11°N, 8.75°W
Report Text: LEVX 241130Z 22003KT 110V280 CAVOK 23/16 Q1021 NOSIG
Loading
Personal Weather Stations






























Interactive Weather Map New forecast layout! Learn more

10-Day Weather Forecast

Advertisements
Track Severe Weather on mobile